Time;durP1;ratioP1;P1;durP2;ratioP2;P2;SDS_P1;SDS_P2;PMS_P1;PMS_P2;Temp;Humidity;BMP_temperature;BMP_pressure;BME280_temperature;BME280_humidity;BME280_pressure;Samples;Min_cycle;Max_cycle;Signal;HPM_P1;HPM_P2
2022/11/16 00:02:50;;;;;;;10.90;10.00;;;12.20;99.90;;;;;;10309088;28;20407;-79
2022/11/16 00:07:54;;;;;;;10.63;9.93;;;12.20;99.90;;;;;;10265483;28;20223;-79
2022/11/16 00:12:56;;;;;;;10.37;9.57;;;12.20;99.90;;;;;;10294966;28;20211;-80
2022/11/16 00:17:58;;;;;;;10.40;9.60;;;12.10;99.90;;;;;;10284006;28;20216;-80
2022/11/16 00:23:01;;;;;;;10.20;9.37;;;12.10;99.90;;;;;;10295143;28;20220;-80
2022/11/16 00:28:04;;;;;;;12.63;11.63;;;12.00;99.90;;;;;;10256709;29;20283;-80
2022/11/16 00:33:07;;;;;;;10.50;9.80;;;11.90;99.90;;;;;;10286751;28;20208;-80
2022/11/16 00:38:11;;;;;;;11.30;10.60;;;11.90;99.90;;;;;;10246629;29;20223;-79
2022/11/16 00:43:13;;;;;;;12.23;11.33;;;11.80;99.90;;;;;;10263158;28;20224;-79
2022/11/16 00:48:15;;;;;;;11.33;10.33;;;11.80;99.90;;;;;;10290215;28;20199;-80
2022/11/16 00:53:20;;;;;;;10.87;10.17;;;11.80;99.90;;;;;;10228188;28;20268;-80
2022/11/16 00:58:22;;;;;;;11.30;10.60;;;11.80;99.90;;;;;;10279514;28;20211;-80
2022/11/16 01:03:31;;;;;;;11.60;10.90;;;11.80;99.90;;;;;;10275263;28;20305;-80
2022/11/16 01:08:36;;;;;;;11.40;10.60;;;11.80;99.90;;;;;;10299634;28;20606;-80
2022/11/16 01:13:38;;;;;;;11.67;10.97;;;11.90;99.90;;;;;;10296217;28;20258;-81
2022/11/16 01:18:40;;;;;;;11.33;10.73;;;11.90;99.90;;;;;;10260439;28;20253;-80
2022/11/16 01:23:43;;;;;;;11.50;10.90;;;11.90;99.90;;;;;;10277533;28;20623;-80
2022/11/16 01:28:46;;;;;;;12.73;11.70;;;11.90;99.90;;;;;;10259719;28;20591;-79
2022/11/16 01:33:49;;;;;;;12.27;11.43;;;11.90;99.90;;;;;;10276769;28;20291;-81
2022/11/16 01:39:02;;;;;;;12.60;11.80;;;11.80;99.90;;;;;;10248243;28;20285;-81
2022/11/16 01:44:44;;;;;;;13.20;12.40;;;11.80;99.90;;;;;;10251911;29;20197;-81
2022/11/16 01:49:53;;;;;;;23.80;21.43;;;11.80;99.90;;;;;;10341103;22;20223;-79
2022/11/16 01:55:03;;;;;;;12.90;11.90;;;11.80;99.90;;;;;;10326593;28;20219;-78
2022/11/16 02:00:18;;;;;;;13.03;12.13;;;11.70;99.90;;;;;;10315585;28;20230;-77
2022/11/16 02:05:38;;;;;;;12.80;11.90;;;11.70;99.90;;;;;;10271444;28;20227;-78
2022/11/16 02:10:55;;;;;;;12.53;11.83;;;11.60;99.90;;;;;;10314230;28;20207;-78
2022/11/16 02:16:08;;;;;;;12.27;11.20;;;11.60;99.90;;;;;;10332030;28;20282;-81
2022/11/16 02:21:20;;;;;;;12.80;11.90;;;11.70;99.90;;;;;;10317558;28;20295;-81
2022/11/16 02:26:42;;;;;;;12.20;11.27;;;11.70;99.90;;;;;;10319270;28;20199;-79
2022/11/16 02:31:54;;;;;;;13.97;12.87;;;11.70;99.90;;;;;;10308858;28;20208;-79
2022/11/16 02:37:01;;;;;;;13.67;12.57;;;11.70;99.90;;;;;;10318898;28;20673;-77
2022/11/16 02:42:05;;;;;;;14.10;13.00;;;11.70;99.90;;;;;;10285609;28;20306;-79
2022/11/16 02:47:15;;;;;;;13.27;12.47;;;11.70;99.90;;;;;;10321948;28;20274;-78
2022/11/16 02:52:18;;;;;;;13.90;13.10;;;11.70;99.90;;;;;;10318122;28;20231;-82
2022/11/16 02:57:34;;;;;;;14.40;13.50;;;11.70;99.90;;;;;;10274248;28;20202;-78
2022/11/16 03:02:45;;;;;;;14.50;13.50;;;11.70;99.90;;;;;;10328183;28;20734;-79
2022/11/16 03:07:53;;;;;;;15.03;14.20;;;11.70;99.90;;;;;;10294505;28;20229;-77
2022/11/16 03:12:56;;;;;;;15.50;14.47;;;11.70;99.90;;;;;;10328994;28;20220;-76
2022/11/16 03:18:00;;;;;;;15.40;14.50;;;11.70;99.90;;;;;;10297761;28;20208;-77
2022/11/16 03:23:05;;;;;;;15.30;14.40;;;11.70;99.90;;;;;;10289160;28;20272;-77
2022/11/16 03:28:13;;;;;;;15.50;14.63;;;11.70;99.90;;;;;;10311243;28;20246;-78
2022/11/16 03:33:21;;;;;;;15.70;14.67;;;11.70;99.90;;;;;;10289622;28;20222;-77
2022/11/16 03:38:28;;;;;;;16.40;15.40;;;11.70;99.90;;;;;;10310806;28;20231;-79
2022/11/16 03:43:33;;;;;;;15.80;14.90;;;11.60;99.90;;;;;;10307716;28;20219;-78
2022/11/16 03:48:39;;;;;;;16.60;15.50;;;11.60;99.90;;;;;;10272793;28;20659;-78
2022/11/16 03:53:50;;;;;;;15.90;15.00;;;11.60;99.90;;;;;;10307575;28;20673;-78
2022/11/16 03:58:54;;;;;;;16.80;15.80;;;11.60;99.90;;;;;;10279814;28;20227;-80
2022/11/16 04:03:58;;;;;;;18.70;17.50;;;11.50;99.90;;;;;;10301193;28;20767;-78
2022/11/16 04:25:31;;;;;;;14.60;13.90;;;11.70;99.90;;;;;;10231608;29;20243;-77
2022/11/16 04:42:13;;;;;;;16.53;15.53;;;11.80;99.90;;;;;;10317568;28;20231;-79
2022/11/16 04:51:54;;;;;;;17.57;16.37;;;11.80;99.90;;;;;;10293448;28;20235;-79
2022/11/16 04:56:57;;;;;;;18.47;17.47;;;11.80;99.90;;;;;;10305740;28;20375;-79
2022/11/16 05:02:08;;;;;;;18.70;17.70;;;11.80;99.90;;;;;;10291718;28;20224;-77
2022/11/16 05:07:19;;;;;;;18.27;17.27;;;11.80;99.90;;;;;;10302886;28;20209;-80
2022/11/16 05:12:24;;;;;;;13.17;12.37;;;11.80;99.90;;;;;;10287883;28;20227;-80
2022/11/16 05:17:30;;;;;;;18.10;16.87;;;11.90;99.90;;;;;;10325745;28;20203;-81
2022/11/16 05:22:36;;;;;;;19.40;18.30;;;11.90;99.90;;;;;;10292453;28;20225;-81
2022/11/16 05:27:39;;;;;;;18.37;17.20;;;11.90;99.90;;;;;;10289670;28;20212;-83
2022/11/16 05:32:41;;;;;;;25.90;23.97;;;11.90;99.90;;;;;;10298181;28;20629;-81
2022/11/16 05:37:46;;;;;;;17.27;16.23;;;11.90;99.90;;;;;;10298435;28;20562;-81
2022/11/16 05:42:48;;;;;;;26.40;23.60;;;12.00;99.90;;;;;;10262287;28;20224;-83
2022/11/16 05:47:52;;;;;;;17.53;16.33;;;12.00;99.90;;;;;;10290243;28;20200;-82
2022/11/16 05:52:57;;;;;;;17.53;16.23;;;11.90;99.90;;;;;;10287958;28;20230;-77
2022/11/16 05:57:59;;;;;;;14.70;14.00;;;11.90;99.90;;;;;;10324114;28;20226;-81
2022/11/16 06:03:01;;;;;;;15.63;14.83;;;11.90;99.90;;;;;;10321176;28;20253;-80
2022/11/16 06:08:08;;;;;;;13.40;12.60;;;11.90;99.90;;;;;;10320454;28;20194;-81
2022/11/16 06:13:10;;;;;;;15.70;14.80;;;11.90;99.90;;;;;;10296627;28;20212;-79
2022/11/16 06:18:14;;;;;;;16.40;15.40;;;11.90;99.90;;;;;;10307024;28;20254;-78
2022/11/16 06:23:17;;;;;;;16.93;15.93;;;11.90;99.90;;;;;;10313255;28;20215;-78
2022/11/16 06:28:19;;;;;;;16.10;15.20;;;11.90;99.90;;;;;;10309285;28;20694;-78
2022/11/16 06:33:23;;;;;;;15.23;14.33;;;11.90;99.90;;;;;;10292168;28;20215;-78
2022/11/16 06:38:27;;;;;;;15.07;14.17;;;11.90;99.90;;;;;;10317256;28;20200;-82
2022/11/16 06:43:30;;;;;;;12.30;11.67;;;11.90;99.90;;;;;;10320128;28;20270;-80
2022/11/16 06:48:33;;;;;;;16.30;15.40;;;12.00;99.90;;;;;;10316697;28;20203;-78
2022/11/16 06:53:38;;;;;;;13.90;13.20;;;12.00;99.90;;;;;;10270840;28;20712;-78
2022/11/16 06:58:41;;;;;;;15.53;14.70;;;12.00;99.90;;;;;;10300413;28;20214;-80
2022/11/16 07:03:43;;;;;;;11.77;11.03;;;12.10;99.90;;;;;;10308387;28;20223;-81
2022/11/16 07:08:48;;;;;;;14.57;13.77;;;12.10;99.90;;;;;;10307722;28;20274;-79
2022/11/16 07:13:54;;;;;;;14.60;13.90;;;12.10;99.90;;;;;;10291123;28;20271;-78
2022/11/16 07:18:58;;;;;;;14.03;13.23;;;12.20;99.90;;;;;;10318988;28;20679;-78
2022/11/16 07:24:02;;;;;;;16.77;15.87;;;12.20;99.90;;;;;;10279443;28;20263;-76
2022/11/16 07:29:04;;;;;;;17.00;15.80;;;12.20;99.90;;;;;;10291660;28;20214;-80
2022/11/16 07:34:08;;;;;;;15.30;14.40;;;12.30;99.90;;;;;;10298295;28;20276;-81
2022/11/16 07:39:21;;;;;;;14.90;14.20;;;12.30;99.90;;;;;;10303662;28;20231;-80
2022/11/16 07:44:23;;;;;;;13.00;12.40;;;12.30;99.90;;;;;;10297600;28;20603;-80
2022/11/16 07:49:39;;;;;;;14.07;13.37;;;12.30;99.90;;;;;;10341611;23;20246;-81
2022/11/16 07:55:04;;;;;;;14.50;13.80;;;12.40;99.90;;;;;;10339082;28;20617;-81
2022/11/16 08:00:09;;;;;;;15.93;15.13;;;12.50;99.90;;;;;;10325602;28;20226;-78
2022/11/16 08:05:20;;;;;;;14.20;13.50;;;12.60;99.90;;;;;;10342370;28;20246;-78
2022/11/16 08:10:25;;;;;;;14.80;14.10;;;12.60;99.90;;;;;;10322727;28;20219;-78
2022/11/16 08:15:29;;;;;;;13.20;12.60;;;12.60;99.90;;;;;;10306505;28;20207;-81
2022/11/16 08:20:35;;;;;;;12.90;12.30;;;12.70;99.90;;;;;;10321163;28;20223;-80
2022/11/16 08:25:39;;;;;;;13.33;12.73;;;12.70;99.90;;;;;;10292079;28;20206;-78
2022/11/16 08:30:41;;;;;;;12.87;12.10;;;12.80;99.90;;;;;;10309843;28;20234;-79
2022/11/16 08:35:44;;;;;;;12.67;11.93;;;12.90;99.90;;;;;;10306583;28;20203;-81
2022/11/16 08:40:49;;;;;;;13.40;12.53;;;13.00;99.90;;;;;;10302807;28;20223;-80
2022/11/16 08:45:53;;;;;;;12.53;11.43;;;13.10;99.90;;;;;;10316593;28;20206;-81
2022/11/16 08:51:01;;;;;;;11.30;10.80;;;13.10;99.90;;;;;;10304369;28;20230;-78
2022/11/16 08:56:07;;;;;;;13.70;12.90;;;13.10;99.90;;;;;;10303327;28;20694;-80
2022/11/16 09:01:12;;;;;;;13.00;12.30;;;13.10;99.90;;;;;;10305222;28;20241;-80
2022/11/16 09:06:15;;;;;;;11.37;10.87;;;13.20;99.90;;;;;;10307473;28;20203;-82
2022/11/16 09:11:22;;;;;;;12.30;11.70;;;13.20;99.90;;;;;;10299080;28;20212;-82
2022/11/16 09:16:26;;;;;;;12.47;11.57;;;13.20;99.90;;;;;;10307862;28;20202;-82
2022/11/16 09:21:29;;;;;;;12.37;11.47;;;13.10;99.90;;;;;;10344658;28;20218;-79
2022/11/16 09:26:33;;;;;;;11.67;11.07;;;13.20;99.90;;;;;;10313453;28;20196;-82
2022/11/16 09:31:36;;;;;;;10.17;9.47;;;13.10;99.90;;;;;;10279631;28;20208;-81
2022/11/16 09:36:38;;;;;;;10.50;10.00;;;13.10;99.90;;;;;;10292751;28;20200;-80
2022/11/16 09:41:56;;;;;;;10.33;9.40;;;13.10;99.90;;;;;;10334059;28;20224;-82
2022/11/16 09:47:00;;;;;;;12.30;11.60;;;13.10;99.90;;;;;;10300306;28;20203;-80
2022/11/16 09:52:05;;;;;;;10.20;9.70;;;13.10;99.90;;;;;;10317236;28;20631;-82
2022/11/16 09:57:19;;;;;;;11.90;9.87;;;13.10;99.90;;;;;;10333040;28;20207;-81
2022/11/16 10:02:28;;;;;;;9.77;9.17;;;13.20;99.90;;;;;;10291368;28;20692;-80
2022/11/16 10:07:37;;;;;;;9.97;9.47;;;13.30;99.90;;;;;;10308129;28;20191;-81
2022/11/16 10:12:48;;;;;;;7.97;7.57;;;13.40;99.90;;;;;;10317819;28;20748;-80
2022/11/16 10:18:04;;;;;;;8.60;8.10;;;13.50;99.90;;;;;;10303460;28;20303;-81
2022/11/16 10:23:14;;;;;;;8.77;4.80;;;13.50;99.90;;;;;;10331324;28;20266;-80
2022/11/16 10:28:39;;;;;;;6.80;6.50;;;13.60;99.90;;;;;;10309107;28;20214;-81
2022/11/16 10:33:45;;;;;;;6.57;6.27;;;13.60;99.90;;;;;;10301146;28;20767;-82
2022/11/16 10:38:48;;;;;;;4.53;4.33;;;13.60;99.90;;;;;;10313715;28;20227;-80
2022/11/16 10:43:51;;;;;;;7.20;6.90;;;13.60;99.90;;;;;;10314014;28;20352;-80
2022/11/16 10:49:02;;;;;;;6.07;5.77;;;13.60;99.90;;;;;;10335258;28;20207;-82
2022/11/16 10:54:12;;;;;;;4.10;3.90;;;13.50;99.90;;;;;;10320918;28;20231;-81
2022/11/16 10:59:18;;;;;;;6.47;6.13;;;13.30;99.90;;;;;;10333844;28;20203;-80
2022/11/16 11:04:23;;;;;;;5.80;5.53;;;13.30;99.90;;;;;;10350816;28;20309;-81
2022/11/16 11:09:28;;;;;;;6.20;5.80;;;13.20;99.90;;;;;;10324387;28;20287;-82
2022/11/16 11:14:34;;;;;;;6.23;5.87;;;13.20;99.90;;;;;;10324820;28;20382;-81
2022/11/16 11:19:36;;;;;;;5.63;5.23;;;13.30;99.90;;;;;;10304696;28;20199;-80
2022/11/16 11:24:47;;;;;;;4.97;4.53;;;13.50;99.90;;;;;;10323894;28;20245;-82
2022/11/16 11:29:54;;;;;;;5.90;5.40;;;13.50;99.90;;;;;;10342830;28;20226;-80
2022/11/16 11:34:58;;;;;;;7.20;5.17;;;13.50;99.90;;;;;;10333799;28;20207;-81
2022/11/16 11:40:21;;;;;;;5.90;5.60;;;13.40;99.90;;;;;;10324404;28;20215;-80
2022/11/16 11:45:35;;;;;;;5.40;5.10;;;13.40;99.90;;;;;;10319379;28;20198;-80
2022/11/16 11:50:45;;;;;;;6.50;6.00;;;13.40;99.90;;;;;;10321783;28;20239;-80
2022/11/16 11:55:47;;;;;;;5.63;5.00;;;13.40;99.90;;;;;;10323228;28;20266;-82
2022/11/16 12:01:02;;;;;;;6.00;5.73;;;13.40;99.90;;;;;;10323141;28;20306;-79
2022/11/16 12:06:14;;;;;;;6.53;4.80;;;13.40;99.90;;;;;;10306440;28;20206;-82
2022/11/16 12:11:27;;;;;;;5.70;5.30;;;13.50;99.90;;;;;;10322213;28;20762;-79
2022/11/16 12:16:36;;;;;;;7.40;5.47;;;13.60;99.90;;;;;;10303719;28;20241;-81
2022/11/16 12:21:50;;;;;;;4.87;4.50;;;13.80;99.90;;;;;;10319360;28;20672;-81
2022/11/16 12:27:02;;;;;;;4.23;3.83;;;13.90;99.90;;;;;;10319108;28;20203;-80
2022/11/16 12:32:30;;;;;;;5.20;4.80;;;14.10;99.90;;;;;;10318909;28;20207;-81
2022/11/16 12:37:38;;;;;;;5.10;4.60;;;14.30;99.90;;;;;;10321847;28;20242;-80
2022/11/16 12:42:45;;;;;;;4.10;3.90;;;14.40;99.90;;;;;;10302737;28;20317;-81
2022/11/16 12:48:05;;;;;;;4.40;4.00;;;14.40;99.90;;;;;;10311891;28;20201;-81
2022/11/16 12:53:30;;;;;;;4.17;3.97;;;14.50;99.90;;;;;;10296836;28;20301;-81
2022/11/16 12:58:54;;;;;;;3.80;3.50;;;14.60;99.90;;;;;;10296888;28;20632;-81
2022/11/16 13:04:05;;;;;;;2.70;2.57;;;14.50;99.90;;;;;;10295689;28;20823;-81
2022/11/16 13:09:12;;;;;;;2.90;2.63;;;14.50;99.90;;;;;;10334998;28;20210;-80
2022/11/16 13:14:18;;;;;;;4.60;3.30;;;14.40;99.90;;;;;;10304288;28;20226;-80
2022/11/16 13:19:22;;;;;;;4.80;4.40;;;14.50;99.90;;;;;;10338208;28;20227;-79
2022/11/16 13:24:36;;;;;;;4.10;3.60;;;14.50;99.90;;;;;;10312373;28;20235;-80
2022/11/16 13:29:46;;;;;;;3.20;2.30;;;14.50;99.90;;;;;;10320961;28;20202;-79
2022/11/16 13:34:51;;;;;;;4.00;3.70;;;14.40;99.90;;;;;;10337085;28;20290;-79
2022/11/16 13:40:13;;;;;;;4.53;4.30;;;14.30;99.90;;;;;;10319945;28;20215;-79
2022/11/16 13:45:18;;;;;;;4.17;3.97;;;14.10;99.90;;;;;;10319825;28;20249;-79
2022/11/16 13:50:24;;;;;;;4.67;4.37;;;14.00;99.90;;;;;;10341743;23;20310;-80
2022/11/16 13:55:31;;;;;;;6.43;2.40;;;13.90;99.90;;;;;;10335069;28;20206;-80
2022/11/16 14:00:35;;;;;;;4.33;4.03;;;13.80;99.90;;;;;;10311969;28;20226;-79
2022/11/16 14:05:40;;;;;;;4.07;3.80;;;13.80;99.90;;;;;;10317658;28;20261;-80
2022/11/16 14:11:27;;;;;;;3.03;2.83;;;13.80;99.90;;;;;;10307509;28;20212;-80
2022/11/16 14:16:46;;;;;;;8.43;7.77;;;13.80;99.90;;;;;;10317885;28;20234;-80
2022/11/16 14:21:58;;;;;;;5.67;4.50;;;13.90;99.90;;;;;;10300195;28;20648;-80
2022/11/16 14:27:08;;;;;;;5.93;4.80;;;13.90;99.90;;;;;;10309371;28;20203;-80
2022/11/16 14:32:21;;;;;;;6.97;5.10;;;13.80;99.90;;;;;;10275266;28;20231;-80
2022/11/16 14:37:34;;;;;;;5.67;4.97;;;13.80;99.90;;;;;;10334265;28;20206;-80
2022/11/16 14:42:46;;;;;;;10.87;7.80;;;13.60;99.90;;;;;;10296427;28;20306;-80
2022/11/16 14:47:49;;;;;;;5.13;4.63;;;13.50;99.90;;;;;;10307729;28;20199;-80
2022/11/16 14:52:56;;;;;;;4.50;4.10;;;13.40;99.90;;;;;;10336468;28;20234;-80
2022/11/16 14:58:09;;;;;;;4.50;3.50;;;13.40;99.90;;;;;;10299738;28;20291;-80
2022/11/16 15:03:12;;;;;;;5.17;4.67;;;13.30;99.90;;;;;;10337610;28;20219;-80
2022/11/16 15:08:21;;;;;;;5.43;4.90;;;13.20;99.90;;;;;;10303452;28;20292;-80
2022/11/16 15:13:24;;;;;;;4.57;4.30;;;13.10;99.90;;;;;;10319655;28;20211;-80
2022/11/16 15:18:26;;;;;;;4.77;4.30;;;12.90;99.90;;;;;;10282634;28;20291;-79
2022/11/16 15:23:30;;;;;;;5.60;5.10;;;12.80;99.90;;;;;;10336006;28;20302;-80
2022/11/16 15:28:33;;;;;;;6.10;5.60;;;12.70;99.90;;;;;;10299735;28;20327;-78
2022/11/16 15:33:38;;;;;;;6.30;5.70;;;12.60;99.90;;;;;;10340158;28;20219;-78
2022/11/16 15:38:41;;;;;;;9.70;8.67;;;12.50;99.90;;;;;;10301546;28;20196;-80
2022/11/16 15:43:49;;;;;;;5.60;5.27;;;12.30;99.90;;;;;;10298494;28;20235;-80
2022/11/16 15:48:52;;;;;;;8.97;8.10;;;12.20;99.90;;;;;;10335081;28;20286;-80
2022/11/16 15:54:14;;;;;;;12.70;11.37;;;12.10;99.90;;;;;;10283473;28;20216;-80
2022/11/16 15:59:23;;;;;;;12.70;11.60;;;12.10;99.90;;;;;;10315529;28;20298;-79
2022/11/16 16:04:27;;;;;;;12.47;11.33;;;11.90;99.90;;;;;;10335987;28;20710;-79
2022/11/16 16:09:33;;;;;;;11.10;10.10;;;11.80;99.90;;;;;;10319119;28;20286;-79
2022/11/16 16:14:38;;;;;;;10.20;8.33;;;11.80;99.90;;;;;;10331129;28;20520;-79
2022/11/16 16:19:42;;;;;;;5.40;4.50;;;11.70;99.90;;;;;;10341124;28;20197;-80
2022/11/16 16:24:46;;;;;;;11.73;10.77;;;11.60;99.90;;;;;;10337659;28;20318;-80
2022/11/16 16:29:50;;;;;;;9.93;6.70;;;11.50;99.90;;;;;;10339143;28;20238;-80
2022/11/16 16:34:53;;;;;;;8.40;6.10;;;11.50;99.90;;;;;;10342085;28;20641;-79
2022/11/16 16:39:57;;;;;;;10.50;8.40;;;11.40;99.90;;;;;;10335596;28;20230;-79
2022/11/16 16:45:00;;;;;;;43.07;38.57;;;11.40;99.90;;;;;;10314657;28;20567;-78
2022/11/16 16:50:02;;;;;;;9.67;8.77;;;11.40;99.90;;;;;;10346131;28;20194;-78
2022/11/16 16:55:07;;;;;;;10.27;8.50;;;11.30;99.90;;;;;;10330060;28;20219;-78
2022/11/16 17:00:11;;;;;;;8.50;7.80;;;11.20;99.90;;;;;;10330571;28;20229;-79
2022/11/16 17:05:13;;;;;;;6.50;5.70;;;11.20;99.90;;;;;;10330270;28;20219;-78
2022/11/16 17:10:17;;;;;;;6.13;5.53;;;11.20;99.90;;;;;;10328209;28;20225;-78
2022/11/16 17:15:19;;;;;;;6.47;5.80;;;11.10;99.90;;;;;;10327882;28;20286;-79
2022/11/16 17:20:21;;;;;;;6.77;6.13;;;11.10;99.90;;;;;;10326324;28;20543;-79
2022/11/16 17:25:25;;;;;;;9.07;6.80;;;11.00;99.90;;;;;;10275566;28;20704;-78
2022/11/16 17:30:27;;;;;;;7.90;7.10;;;11.00;99.90;;;;;;10310734;28;20215;-79
2022/11/16 17:35:29;;;;;;;5.67;5.07;;;10.90;99.90;;;;;;10295201;28;20247;-78
2022/11/16 17:40:32;;;;;;;6.00;5.60;;;10.90;99.90;;;;;;10310113;28;20321;-79
2022/11/16 17:45:34;;;;;;;7.77;6.10;;;10.90;99.90;;;;;;10329104;28;20569;-78
2022/11/16 17:50:36;;;;;;;10.83;7.10;;;10.90;99.90;;;;;;10279258;28;20278;-78
2022/11/16 17:55:40;;;;;;;8.50;4.60;;;11.00;99.90;;;;;;10309295;28;20318;-78
2022/11/16 18:00:42;;;;;;;5.97;5.47;;;11.00;99.90;;;;;;10296565;28;20595;-79
2022/11/16 18:05:44;;;;;;;7.67;5.70;;;11.10;99.90;;;;;;10325924;28;20277;-80
2022/11/16 18:10:47;;;;;;;8.33;7.30;;;11.20;99.90;;;;;;10281627;28;20231;-78
2022/11/16 18:15:49;;;;;;;17.50;13.97;;;11.30;99.90;;;;;;10308015;28;20215;-79
2022/11/16 18:20:51;;;;;;;9.50;8.60;;;11.40;99.90;;;;;;10281481;28;20633;-78
2022/11/16 18:25:55;;;;;;;10.60;9.27;;;11.50;99.90;;;;;;10274437;28;20247;-78
2022/11/16 18:31:03;;;;;;;9.37;8.57;;;11.60;99.90;;;;;;10322655;28;20217;-80
2022/11/16 18:36:06;;;;;;;8.87;7.97;;;11.70;99.90;;;;;;10295674;28;20255;-79
2022/11/16 18:41:18;;;;;;;10.33;9.07;;;11.70;99.90;;;;;;10325975;28;20223;-79
2022/11/16 18:46:21;;;;;;;8.10;6.60;;;11.80;99.90;;;;;;10329218;28;20191;-78
2022/11/16 18:51:24;;;;;;;10.97;9.87;;;11.80;99.90;;;;;;10295175;28;20699;-78
2022/11/16 18:56:28;;;;;;;11.20;10.20;;;11.70;99.90;;;;;;10322023;28;20203;-78
2022/11/16 19:01:30;;;;;;;12.77;9.87;;;11.70;99.90;;;;;;10295723;28;20229;-77
2022/11/16 19:06:32;;;;;;;10.07;9.07;;;11.60;99.90;;;;;;10320196;28;20217;-78
2022/11/16 19:11:36;;;;;;;8.73;7.83;;;11.60;99.90;;;;;;10296950;28;20223;-79
2022/11/16 19:16:38;;;;;;;8.00;6.90;;;11.50;99.90;;;;;;10305784;28;20253;-79
2022/11/16 19:21:40;;;;;;;10.57;7.07;;;11.40;99.90;;;;;;10303537;28;20304;-78
2022/11/16 19:26:44;;;;;;;8.10;4.70;;;11.40;99.90;;;;;;10328029;28;20197;-78
2022/11/16 19:31:46;;;;;;;6.80;5.70;;;11.30;99.90;;;;;;10285772;28;20294;-79
2022/11/16 19:36:48;;;;;;;5.93;5.43;;;11.20;99.90;;;;;;10322855;28;20196;-81
2022/11/16 19:41:51;;;;;;;6.60;6.10;;;11.20;99.90;;;;;;10311158;28;20267;-80
2022/11/16 19:46:53;;;;;;;7.80;5.77;;;11.10;99.90;;;;;;10322159;28;20224;-80
2022/11/16 19:51:55;;;;;;;5.50;5.00;;;11.00;99.90;;;;;;10298010;28;20614;-77
2022/11/16 19:56:58;;;;;;;7.60;5.87;;;10.90;99.90;;;;;;10316212;28;20195;-78
2022/11/16 20:02:01;;;;;;;6.70;6.07;;;10.90;99.90;;;;;;10286364;28;20214;-77
2022/11/16 20:07:04;;;;;;;7.87;7.07;;;10.80;99.90;;;;;;10259346;28;20200;-78
2022/11/16 20:12:07;;;;;;;10.73;7.03;;;10.80;99.90;;;;;;10321306;28;20637;-78
2022/11/16 20:17:10;;;;;;;7.83;7.13;;;10.80;99.90;;;;;;10332377;28;20191;-80
2022/11/16 20:22:12;;;;;;;7.47;6.83;;;10.80;99.90;;;;;;10304582;28;20279;-79
2022/11/16 20:27:15;;;;;;;9.40;8.50;;;10.80;99.90;;;;;;10320564;28;20199;-79
2022/11/16 20:32:17;;;;;;;9.97;8.77;;;10.70;99.90;;;;;;10287587;28;20589;-77
2022/11/16 20:37:19;;;;;;;8.70;7.80;;;10.60;99.90;;;;;;10301168;28;20610;-79
2022/11/16 20:42:23;;;;;;;9.77;8.87;;;10.60;99.90;;;;;;10305254;28;20262;-78
2022/11/16 20:47:25;;;;;;;9.27;8.37;;;10.50;99.90;;;;;;10317801;28;20671;-78
2022/11/16 20:52:27;;;;;;;10.93;9.93;;;10.40;99.90;;;;;;10304213;28;20559;-78
2022/11/16 20:57:30;;;;;;;10.63;9.67;;;10.40;99.90;;;;;;10289836;28;20227;-79
2022/11/16 21:02:32;;;;;;;15.83;11.43;;;10.40;99.90;;;;;;10308007;28;20221;-77
2022/11/16 21:07:34;;;;;;;11.90;10.70;;;10.50;99.90;;;;;;10329447;28;20476;-77
2022/11/16 21:17:57;;;;;;;12.17;9.70;;;10.60;99.90;;;;;;10345194;28;20654;-79
2022/11/16 21:22:59;;;;;;;11.97;10.70;;;10.60;99.90;;;;;;10315332;28;20211;-82
2022/11/16 21:28:03;;;;;;;14.40;12.00;;;10.60;99.90;;;;;;10329540;28;20225;-79
2022/11/16 21:33:05;;;;;;;10.80;9.67;;;10.60;99.90;;;;;;10335345;28;20267;-80
2022/11/16 21:38:07;;;;;;;10.27;9.40;;;10.60;99.90;;;;;;10335173;28;20202;-79
2022/11/16 21:43:10;;;;;;;10.37;8.17;;;10.60;99.90;;;;;;10325629;28;20222;-80
2022/11/16 21:48:13;;;;;;;9.33;7.50;;;10.60;99.90;;;;;;10371467;28;20199;-83
2022/11/16 21:53:15;;;;;;;10.63;9.53;;;10.60;99.90;;;;;;10336260;28;20237;-79
2022/11/16 21:58:18;;;;;;;11.67;8.50;;;10.60;99.90;;;;;;10335653;28;20234;-80
2022/11/16 22:03:20;;;;;;;9.43;8.40;;;10.60;99.90;;;;;;10331705;28;20261;-77
2022/11/16 22:08:22;;;;;;;11.27;10.27;;;10.60;99.90;;;;;;10334199;28;20203;-80
2022/11/16 22:13:26;;;;;;;10.53;8.70;;;10.60;99.90;;;;;;10334812;28;20220;-80
2022/11/16 22:18:31;;;;;;;10.87;9.77;;;10.60;99.90;;;;;;10330127;28;20279;-78
2022/11/16 22:23:34;;;;;;;10.47;9.67;;;10.70;99.90;;;;;;10331522;28;20285;-78
2022/11/16 22:28:38;;;;;;;10.27;9.20;;;10.70;99.90;;;;;;10308882;28;20889;-78
2022/11/16 22:33:41;;;;;;;10.67;9.67;;;10.80;99.90;;;;;;10328281;28;20215;-78
2022/11/16 22:38:43;;;;;;;10.00;9.07;;;10.80;99.90;;;;;;10312943;28;20253;-79
2022/11/16 22:43:46;;;;;;;9.40;8.67;;;10.90;99.90;;;;;;10308802;28;20309;-79
2022/11/16 22:48:48;;;;;;;10.67;8.47;;;10.90;99.90;;;;;;10328461;28;20206;-79
2022/11/16 22:53:53;;;;;;;9.00;8.10;;;11.00;99.90;;;;;;10337711;28;20285;-78
2022/11/16 22:58:57;;;;;;;8.90;8.17;;;11.00;99.90;;;;;;10338600;28;20262;-80
2022/11/16 23:03:59;;;;;;;9.30;8.40;;;11.00;99.90;;;;;;10338324;28;20215;-78
2022/11/16 23:09:01;;;;;;;10.83;9.83;;;11.10;99.90;;;;;;10337100;28;20644;-78
2022/11/16 23:30:08;;;;;;;9.40;8.57;;;11.20;99.90;;;;;;10320692;28;20619;-80
2022/11/16 23:35:10;;;;;;;10.00;9.10;;;11.20;99.90;;;;;;10342708;28;20202;-79
2022/11/16 23:40:12;;;;;;;8.90;8.40;;;11.20;99.90;;;;;;10339777;28;20247;-80
2022/11/16 23:45:19;;;;;;;11.50;10.57;;;11.30;99.90;;;;;;10343995;28;20234;-80
2022/11/16 23:50:21;;;;;;;8.63;7.93;;;11.30;99.90;;;;;;10359882;28;20710;-80
2022/11/16 23:55:23;;;;;;;10.13;9.33;;;11.30;99.90;;;;;;10317628;28;20200;-79
